Time;durP1;ratioP1;P1;durP2;ratioP2;P2;SDS_P1;SDS_P2;PMS_P1;PMS_P2;Temp;Humidity;BMP_temperature;BMP_pressure;BME280_temperature;BME280_humidity;BME280_pressure;Samples;Min_cycle;Max_cycle;Signal;HPM_P1;HPM_P2
2021/09/19 00:01:22;;;;;;;8.43;7.40;;;;;;;;;;5095174;28;20221;-75
2021/09/19 00:04:26;;;;;;;9.93;7.50;;;;;;;;;;5095236;28;20175;-76
2021/09/19 00:07:30;;;;;;;8.93;7.23;;;;;;;;;;5102604;22;20231;-76
2021/09/19 00:10:34;;;;;;;13.50;8.67;;;;;;;;;;5070483;28;20202;-76
2021/09/19 00:13:38;;;;;;;8.43;7.53;;;;;;;;;;5071949;28;20179;-77
2021/09/19 00:16:43;;;;;;;9.27;8.00;;;;;;;;;;5095601;28;20519;-77
2021/09/19 00:19:47;;;;;;;10.20;8.30;;;;;;;;;;5095503;28;20199;-77
2021/09/19 00:22:51;;;;;;;9.73;8.57;;;;;;;;;;5095582;28;20183;-77
2021/09/19 00:25:55;;;;;;;11.17;9.13;;;;;;;;;;5095553;28;20175;-76
2021/09/19 00:28:59;;;;;;;10.93;8.83;;;;;;;;;;5071234;28;20187;-76
2021/09/19 00:32:04;;;;;;;9.10;8.20;;;;;;;;;;5095243;28;20546;-76
2021/09/19 00:35:08;;;;;;;10.10;7.87;;;;;;;;;;5071098;28;20207;-77
2021/09/19 00:38:12;;;;;;;10.03;8.13;;;;;;;;;;5095289;28;20179;-77
2021/09/19 00:41:17;;;;;;;9.23;7.97;;;;;;;;;;5042751;28;20223;-76
2021/09/19 00:44:27;;;;;;;10.67;8.40;;;;;;;;;;5064524;28;20183;-77
2021/09/19 00:47:31;;;;;;;9.03;7.97;;;;;;;;;;5095118;28;20183;-76
2021/09/19 00:50:35;;;;;;;10.30;7.97;;;;;;;;;;5082359;28;20641;-77
2021/09/19 00:53:41;;;;;;;11.23;8.83;;;;;;;;;;5094971;28;20179;-76
2021/09/19 00:56:46;;;;;;;11.97;7.90;;;;;;;;;;5082181;28;20225;-77
2021/09/19 00:59:50;;;;;;;10.83;8.10;;;;;;;;;;5070567;28;20187;-76
2021/09/19 01:02:55;;;;;;;9.53;8.27;;;;;;;;;;5070905;28;20515;-77
2021/09/19 01:06:00;;;;;;;9.43;8.00;;;;;;;;;;5082338;28;20518;-76
2021/09/19 01:09:04;;;;;;;9.10;7.93;;;;;;;;;;5081806;28;20198;-76
2021/09/19 01:12:10;;;;;;;11.40;7.97;;;;;;;;;;5094597;28;20222;-76
2021/09/19 01:15:15;;;;;;;11.00;8.93;;;;;;;;;;5094311;28;20206;-76
2021/09/19 01:18:19;;;;;;;11.37;8.73;;;;;;;;;;5070238;28;20183;-76
2021/09/19 01:21:24;;;;;;;9.60;8.57;;;;;;;;;;5081987;28;20692;-77
2021/09/19 01:24:29;;;;;;;9.13;7.97;;;;;;;;;;5070070;28;20194;-76
2021/09/19 01:27:33;;;;;;;8.87;7.70;;;;;;;;;;5081707;28;20187;-77
2021/09/19 01:30:38;;;;;;;8.33;7.30;;;;;;;;;;5053962;28;20176;-77
2021/09/19 01:33:42;;;;;;;8.37;7.17;;;;;;;;;;5044552;28;20176;-76
2021/09/19 01:36:46;;;;;;;9.03;7.90;;;;;;;;;;5081186;28;20199;-77
2021/09/19 01:39:52;;;;;;;8.20;7.40;;;;;;;;;;5081395;28;20191;-76
2021/09/19 01:42:57;;;;;;;11.67;8.47;;;;;;;;;;5093530;28;20552;-76
2021/09/19 01:46:05;;;;;;;9.30;7.00;;;;;;;;;;5093574;28;20522;-76
2021/09/19 01:49:09;;;;;;;11.13;7.20;;;;;;;;;;5093738;28;20545;-76
2021/09/19 01:52:15;;;;;;;9.43;7.80;;;;;;;;;;5093830;28;20211;-76
2021/09/19 01:55:19;;;;;;;10.33;7.43;;;;;;;;;;5093288;28;20207;-77
2021/09/19 01:58:24;;;;;;;9.83;8.60;;;;;;;;;;5053553;28;20180;-76
2021/09/19 02:01:30;;;;;;;11.20;9.37;;;;;;;;;;5049896;28;20214;-76
2021/09/19 02:04:39;;;;;;;10.27;7.53;;;;;;;;;;5047522;28;20209;-76
2021/09/19 02:07:43;;;;;;;9.27;8.20;;;;;;;;;;5073234;28;20203;-77
2021/09/19 02:10:47;;;;;;;11.73;8.47;;;;;;;;;;5073340;28;20219;-77
2021/09/19 02:13:51;;;;;;;10.07;8.60;;;;;;;;;;5075386;28;20190;-77
2021/09/19 02:16:55;;;;;;;11.73;8.57;;;;;;;;;;5070868;28;20194;-76
2021/09/19 02:20:00;;;;;;;11.77;8.90;;;;;;;;;;5081100;28;20187;-76
2021/09/19 02:23:04;;;;;;;13.53;9.30;;;;;;;;;;5081035;28;20194;-76
2021/09/19 02:26:08;;;;;;;12.70;9.43;;;;;;;;;;5092761;28;20530;-76
2021/09/19 02:29:12;;;;;;;9.30;8.20;;;;;;;;;;5052362;28;20180;-76
2021/09/19 02:32:17;;;;;;;8.40;7.20;;;;;;;;;;5053066;28;20227;-76
2021/09/19 02:35:21;;;;;;;7.87;6.50;;;;;;;;;;5075198;28;20202;-77
2021/09/19 02:38:26;;;;;;;9.13;7.00;;;;;;;;;;5053050;28;20547;-77
2021/09/19 02:41:30;;;;;;;7.97;6.73;;;;;;;;;;5052965;28;20219;-77
2021/09/19 02:44:34;;;;;;;7.80;6.83;;;;;;;;;;5049135;28;20191;-76
2021/09/19 02:47:39;;;;;;;9.77;6.30;;;;;;;;;;5092869;28;20183;-76
2021/09/19 02:50:43;;;;;;;7.87;7.07;;;;;;;;;;5093164;28;20210;-77
2021/09/19 02:53:47;;;;;;;9.30;6.73;;;;;;;;;;5069267;28;20175;-76
2021/09/19 02:56:52;;;;;;;10.37;6.47;;;;;;;;;;5047629;28;20202;-77
2021/09/19 02:59:56;;;;;;;8.00;7.20;;;;;;;;;;5097235;28;20179;-76
2021/09/19 03:03:00;;;;;;;8.27;6.03;;;;;;;;;;5096895;28;20194;-76
2021/09/19 03:06:05;;;;;;;8.17;6.80;;;;;;;;;;5072669;28;20178;-77
2021/09/19 03:09:09;;;;;;;7.97;6.77;;;;;;;;;;5091994;28;20207;-77
2021/09/19 03:12:13;;;;;;;9.13;6.53;;;;;;;;;;5079865;28;20210;-76
2021/09/19 03:15:17;;;;;;;7.63;6.27;;;;;;;;;;5072745;28;20564;-76
2021/09/19 03:18:22;;;;;;;8.47;7.17;;;;;;;;;;5096589;28;20194;-76
2021/09/19 03:21:26;;;;;;;8.03;6.77;;;;;;;;;;5096730;28;20222;-76
2021/09/19 03:24:30;;;;;;;8.23;6.67;;;;;;;;;;5084052;28;20187;-77
2021/09/19 03:27:34;;;;;;;8.40;6.63;;;;;;;;;;5096472;28;20183;-76
2021/09/19 03:30:39;;;;;;;7.23;6.20;;;;;;;;;;5072438;28;20549;-76
2021/09/19 03:33:43;;;;;;;7.70;6.80;;;;;;;;;;5083670;28;20194;-77
2021/09/19 03:36:47;;;;;;;11.10;6.87;;;;;;;;;;5096281;28;20206;-77
2021/09/19 03:39:51;;;;;;;7.90;6.23;;;;;;;;;;5083971;28;20183;-77
2021/09/19 03:42:55;;;;;;;6.97;6.20;;;;;;;;;;5083747;28;20187;-77
2021/09/19 03:45:58;;;;;;;7.20;6.00;;;;;;;;;;5095997;28;20186;-76
2021/09/19 03:49:04;;;;;;;8.73;6.30;;;;;;;;;;5096265;28;20174;-77
2021/09/19 03:52:08;;;;;;;7.33;6.53;;;;;;;;;;5096187;28;20218;-77
2021/09/19 03:55:12;;;;;;;8.17;6.57;;;;;;;;;;5095944;28;20174;-76
2021/09/19 03:58:16;;;;;;;7.97;6.63;;;;;;;;;;5095845;28;20179;-76
2021/09/19 04:01:20;;;;;;;7.47;6.67;;;;;;;;;;5083336;28;20222;-76
2021/09/19 04:04:24;;;;;;;7.30;6.60;;;;;;;;;;5055800;28;20634;-77
2021/09/19 04:07:28;;;;;;;9.57;6.53;;;;;;;;;;5042860;28;20192;-76
2021/09/19 04:10:32;;;;;;;8.47;6.30;;;;;;;;;;5071564;28;20652;-76
2021/09/19 04:13:37;;;;;;;8.17;6.53;;;;;;;;;;5083191;28;20183;-76
2021/09/19 04:16:41;;;;;;;7.80;6.07;;;;;;;;;;5071649;28;20198;-76
2021/09/19 04:19:45;;;;;;;8.67;6.60;;;;;;;;;;5083119;28;20549;-77
2021/09/19 04:22:49;;;;;;;8.10;6.33;;;;;;;;;;5095459;28;20191;-77
2021/09/19 04:25:53;;;;;;;7.93;6.33;;;;;;;;;;5095560;28;20617;-77
2021/09/19 04:28:57;;;;;;;8.43;7.17;;;;;;;;;;5082846;28;20183;-76
2021/09/19 04:32:03;;;;;;;7.17;6.47;;;;;;;;;;5071171;28;20215;-77
2021/09/19 04:35:07;;;;;;;8.27;6.27;;;;;;;;;;5071495;28;20179;-77
2021/09/19 04:38:13;;;;;;;8.97;6.60;;;;;;;;;;5095400;28;20178;-77
2021/09/19 04:41:17;;;;;;;7.00;6.23;;;;;;;;;;5094865;28;20210;-76
2021/09/19 04:44:21;;;;;;;9.67;6.63;;;;;;;;;;5082804;28;20545;-77
2021/09/19 04:47:25;;;;;;;8.27;6.03;;;;;;;;;;5094958;28;20182;-77
2021/09/19 04:50:30;;;;;;;7.00;6.30;;;;;;;;;;5094975;28;20179;-77
2021/09/19 04:53:34;;;;;;;8.50;6.23;;;;;;;;;;5082410;28;20645;-77
2021/09/19 04:56:38;;;;;;;6.50;5.87;;;;;;;;;;5094500;28;20206;-77
2021/09/19 04:59:42;;;;;;;7.13;6.10;;;;;;;;;;5082364;28;20191;-77
2021/09/19 05:02:46;;;;;;;7.77;7.03;;;;;;;;;;5094598;28;20187;-76
2021/09/19 05:05:50;;;;;;;8.97;7.67;;;;;;;;;;5059224;28;20186;-76
2021/09/19 05:08:54;;;;;;;9.13;6.97;;;;;;;;;;5061188;28;20206;-77
2021/09/19 05:11:58;;;;;;;7.77;6.80;;;;;;;;;;5074019;28;20264;-76
2021/09/19 05:15:02;;;;;;;13.57;7.90;;;;;;;;;;5062037;28;20175;-77
2021/09/19 05:18:08;;;;;;;9.27;6.87;;;;;;;;;;5091243;28;20187;-77
2021/09/19 05:21:12;;;;;;;12.00;7.53;;;;;;;;;;5094363;28;20214;-75
2021/09/19 05:24:16;;;;;;;11.93;7.70;;;;;;;;;;5070483;28;20187;-76
2021/09/19 05:27:20;;;;;;;11.17;7.23;;;;;;;;;;5094382;28;20641;-77
2021/09/19 05:30:24;;;;;;;10.10;6.60;;;;;;;;;;5081816;28;20179;-77
2021/09/19 05:33:28;;;;;;;11.73;7.37;;;;;;;;;;5082227;28;20186;-76
2021/09/19 05:36:32;;;;;;;13.30;7.77;;;;;;;;;;5081708;28;20202;-76
2021/09/19 05:39:36;;;;;;;11.40;7.77;;;;;;;;;;5070093;28;20198;-77
2021/09/19 05:42:42;;;;;;;9.33;7.47;;;;;;;;;;5081491;28;20215;-76
2021/09/19 05:45:46;;;;;;;12.07;7.87;;;;;;;;;;5094001;28;20183;-76
2021/09/19 05:48:50;;;;;;;13.50;7.97;;;;;;;;;;5093826;28;20194;-77
2021/09/19 05:51:54;;;;;;;12.23;7.90;;;;;;;;;;5093893;28;20218;-76
2021/09/19 05:54:58;;;;;;;17.83;8.73;;;;;;;;;;5054034;28;20176;-76
2021/09/19 05:58:02;;;;;;;14.20;8.80;;;;;;;;;;5053639;28;20561;-77
2021/09/19 06:01:06;;;;;;;11.80;8.37;;;;;;;;;;5052970;28;20226;-77
2021/09/19 06:04:10;;;;;;;12.97;9.00;;;;;;;;;;5076951;28;20195;-76
2021/09/19 06:07:18;;;;;;;12.33;8.73;;;;;;;;;;5073129;22;20198;31
2021/09/19 06:10:23;;;;;;;8.97;8.07;;;;;;;;;;4942455;28;20551;-75
2021/09/19 06:13:27;;;;;;;10.00;8.63;;;;;;;;;;4973117;28;20210;-75
2021/09/19 06:16:31;;;;;;;12.93;8.63;;;;;;;;;;4971009;28;20214;-75
2021/09/19 06:19:36;;;;;;;19.17;10.93;;;;;;;;;;4966759;28;20190;-75
2021/09/19 06:22:41;;;;;;;20.00;14.63;;;;;;;;;;4990504;28;20233;-75
2021/09/19 06:25:45;;;;;;;16.80;12.63;;;;;;;;;;4977770;28;20186;-75
2021/09/19 06:28:49;;;;;;;15.33;11.00;;;;;;;;;;4967123;28;20186;-75
2021/09/19 06:31:53;;;;;;;16.97;10.60;;;;;;;;;;4989079;28;20233;-75
2021/09/19 06:34:57;;;;;;;12.53;10.00;;;;;;;;;;4990016;28;20182;-75
2021/09/19 06:38:01;;;;;;;14.13;10.53;;;;;;;;;;4989768;28;20228;-75
2021/09/19 06:41:05;;;;;;;16.97;12.70;;;;;;;;;;4990171;28;20244;-75
2021/09/19 06:44:09;;;;;;;22.27;15.37;;;;;;;;;;4989982;28;20206;-74
2021/09/19 06:47:14;;;;;;;22.20;15.60;;;;;;;;;;4959099;28;20209;-75
2021/09/19 06:50:18;;;;;;;20.83;16.50;;;;;;;;;;4959660;28;20205;-75
2021/09/19 06:53:22;;;;;;;21.07;17.00;;;;;;;;;;4966200;28;20560;-75
2021/09/19 06:56:26;;;;;;;22.40;16.53;;;;;;;;;;4978017;28;20195;-75
2021/09/19 06:59:30;;;;;;;25.73;18.33;;;;;;;;;;4977875;28;20693;-75
2021/09/19 07:02:36;;;;;;;22.20;16.43;;;;;;;;;;4989640;28;20221;-75
2021/09/19 07:05:41;;;;;;;23.87;17.37;;;;;;;;;;4970566;28;20183;-75
2021/09/19 07:08:45;;;;;;;25.37;19.20;;;;;;;;;;4971670;28;20221;-75
2021/09/19 07:11:49;;;;;;;25.80;20.77;;;;;;;;;;4989508;28;20228;-75
2021/09/19 07:14:53;;;;;;;24.73;19.03;;;;;;;;;;4977438;28;20201;-75
2021/09/19 07:17:58;;;;;;;26.43;18.43;;;;;;;;;;4989934;28;20558;-75
2021/09/19 07:21:02;;;;;;;25.70;17.60;;;;;;;;;;4989841;28;20228;-75
2021/09/19 07:24:07;;;;;;;21.57;17.60;;;;;;;;;;4990136;28;20212;-76
2021/09/19 07:27:11;;;;;;;25.07;19.20;;;;;;;;;;4989217;28;20205;-74
2021/09/19 07:30:15;;;;;;;23.57;17.77;;;;;;;;;;4976250;28;20668;-75
2021/09/19 07:33:21;;;;;;;21.40;16.93;;;;;;;;;;4989799;28;20194;-75
2021/09/19 07:36:33;;;;;;;19.70;15.80;;;;;;;;;;4988654;28;20552;-75
2021/09/19 07:39:38;;;;;;;19.20;15.90;;;;;;;;;;4990000;28;20210;-76
2021/09/19 07:42:42;;;;;;;17.87;15.63;;;;;;;;;;4981575;28;20581;-76
2021/09/19 07:45:47;;;;;;;17.47;15.00;;;;;;;;;;4981409;28;20205;-76
2021/09/19 07:48:52;;;;;;;16.10;14.07;;;;;;;;;;4993844;28;20189;-76
2021/09/19 07:51:57;;;;;;;19.67;13.70;;;;;;;;;;4981448;28;20228;-76
2021/09/19 07:55:01;;;;;;;17.63;13.60;;;;;;;;;;4981292;28;20201;-75
2021/09/19 07:58:05;;;;;;;16.20;12.80;;;;;;;;;;4992533;28;20222;-75
2021/09/19 08:01:10;;;;;;;14.03;12.13;;;;;;;;;;4992568;28;20241;-75
2021/09/19 08:04:14;;;;;;;13.93;12.03;;;;;;;;;;4992823;28;20209;-75
2021/09/19 08:07:21;;;;;;;15.17;11.70;;;;;;;;;;4961772;28;20664;-75
2021/09/19 08:10:25;;;;;;;12.37;11.07;;;;;;;;;;4973960;28;20197;-75
2021/09/19 08:13:29;;;;;;;10.70;9.60;;;;;;;;;;4992869;28;20189;-77
2021/09/19 08:16:35;;;;;;;11.00;9.43;;;;;;;;;;4981723;28;20190;-79
2021/09/19 08:19:40;;;;;;;9.80;8.80;;;;;;;;;;4973779;28;20187;-76
2021/09/19 08:22:45;;;;;;;7.83;7.03;;;;;;;;;;4988772;28;20905;-76
2021/09/19 08:25:50;;;;;;;9.17;6.80;;;;;;;;;;4992324;28;20206;-76
2021/09/19 08:28:55;;;;;;;7.73;6.10;;;;;;;;;;4992177;28;20198;-76
2021/09/19 08:32:00;;;;;;;6.97;6.03;;;;;;;;;;4992716;28;20226;-76
2021/09/19 08:35:06;;;;;;;6.73;5.60;;;;;;;;;;4980492;28;20190;-76
2021/09/19 08:38:10;;;;;;;5.00;4.50;;;;;;;;;;4991915;28;20206;-76
2021/09/19 08:41:16;;;;;;;5.40;4.30;;;;;;;;;;4991737;28;20230;-76
2021/09/19 08:44:20;;;;;;;7.23;4.13;;;;;;;;;;4992620;28;20194;-77
2021/09/19 08:47:28;;;;;;;4.30;3.90;;;;;;;;;;4980091;28;20562;-75
2021/09/19 08:50:32;;;;;;;5.27;3.63;;;;;;;;;;4979870;28;20182;-76
2021/09/19 08:53:37;;;;;;;3.40;3.10;;;;;;;;;;4980165;28;20656;-75
2021/09/19 08:56:41;;;;;;;6.13;3.60;;;;;;;;;;4990724;28;20190;-75
2021/09/19 08:59:50;;;;;;;6.47;4.73;;;;;;;;;;4978132;28;20190;-75
2021/09/19 09:02:54;;;;;;;6.20;3.23;;;;;;;;;;4988076;28;20190;-75
2021/09/19 09:06:04;;;;;;;3.90;3.50;;;;;;;;;;4990253;28;20194;-75
2021/09/19 09:09:16;;;;;;;4.67;4.17;;;;;;;;;;4968278;28;20317;-75
2021/09/19 09:12:21;;;;;;;3.87;3.30;;;;;;;;;;4972418;28;20725;-75
2021/09/19 09:15:34;;;;;;;3.33;2.87;;;;;;;;;;4976649;28;20206;-76
2021/09/19 09:18:40;;;;;;;6.80;3.13;;;;;;;;;;4990629;28;20213;-76
2021/09/19 09:21:45;;;;;;;4.33;3.47;;;;;;;;;;4978856;28;20217;-76
2021/09/19 09:25:08;;;;;;;3.70;2.83;;;;;;;;;;4979307;28;20194;-75
2021/09/19 09:28:12;;;;;;;3.27;2.90;;;;;;;;;;4992717;28;20183;-75
2021/09/19 09:31:30;;;;;;;4.63;3.37;;;;;;;;;;4991393;28;20217;-75
2021/09/19 09:34:34;;;;;;;5.33;3.83;;;;;;;;;;4960340;28;20204;-75
2021/09/19 09:37:40;;;;;;;5.70;4.20;;;;;;;;;;4990991;28;20581;-76
2021/09/19 09:40:44;;;;;;;10.97;4.20;;;;;;;;;;4991420;28;20231;-76
2021/09/19 09:43:49;;;;;;;6.30;3.00;;;;;;;;;;4979801;28;20184;-75
2021/09/19 09:46:53;;;;;;;6.80;4.10;;;;;;;;;;4991599;28;20200;-76
2021/09/19 09:50:00;;;;;;;3.90;3.50;;;;;;;;;;4991866;28;20681;-76
2021/09/19 09:53:12;;;;;;;3.43;3.10;;;;;;;;;;4991760;28;20199;-76
2021/09/19 09:56:17;;;;;;;3.77;2.63;;;;;;;;;;4973843;28;20191;-77
2021/09/19 09:59:21;;;;;;;9.50;3.00;;;;;;;;;;4990616;28;20218;-77
2021/09/19 10:02:26;;;;;;;2.80;2.50;;;;;;;;;;4986465;28;20221;-76
2021/09/19 10:05:30;;;;;;;3.77;3.10;;;;;;;;;;4974338;28;20200;-75
2021/09/19 10:08:35;;;;;;;92.23;8.90;;;;;;;;;;4974932;28;20211;-76
2021/09/19 10:11:39;;;;;;;3.03;2.80;;;;;;;;;;4987754;28;20222;-76
2021/09/19 10:14:44;;;;;;;6.70;2.90;;;;;;;;;;4982233;28;20649;-76
2021/09/19 10:17:49;;;;;;;8.67;3.17;;;;;;;;;;4994650;28;20211;-76
2021/09/19 10:20:53;;;;;;;7.07;3.20;;;;;;;;;;4994075;28;20249;-76
2021/09/19 10:23:58;;;;;;;3.37;2.80;;;;;;;;;;4994307;28;20208;-76
2021/09/19 10:27:15;;;;;;;16.00;3.30;;;;;;;;;;4994149;28;20191;-76
2021/09/19 10:30:19;;;;;;;4.50;2.60;;;;;;;;;;4994117;28;20198;-76
2021/09/19 10:33:38;;;;;;;3.77;3.37;;;;;;;;;;4964901;28;20202;-76
2021/09/19 10:36:53;;;;;;;4.93;2.97;;;;;;;;;;4994273;28;20189;-76
2021/09/19 10:40:05;;;;;;;3.57;3.23;;;;;;;;;;4994296;28;20180;-76
2021/09/19 10:43:15;;;;;;;6.77;3.40;;;;;;;;;;4989603;28;20668;-75
2021/09/19 10:46:35;;;;;;;3.43;3.13;;;;;;;;;;4974806;28;20515;-75
2021/09/19 10:49:40;;;;;;;7.03;3.97;;;;;;;;;;4993415;28;20661;-76
2021/09/19 10:52:46;;;;;;;4.27;3.40;;;;;;;;;;4984928;28;20226;-76
2021/09/19 10:55:59;;;;;;;4.57;3.00;;;;;;;;;;4980565;28;20197;-76
2021/09/19 10:59:03;;;;;;;4.53;3.40;;;;;;;;;;4962374;28;20216;-76
2021/09/19 11:02:07;;;;;;;3.57;2.80;;;;;;;;;;4988771;28;20562;-76
2021/09/19 11:05:28;;;;;;;8.37;3.23;;;;;;;;;;4993785;28;20660;-76
2021/09/19 11:08:40;;;;;;;2.60;2.40;;;;;;;;;;4993320;28;20214;-76
2021/09/19 11:12:08;;;;;;;6.13;3.23;;;;;;;;;;4973443;28;20218;-75
2021/09/19 11:15:22;;;;;;;2.93;2.40;;;;;;;;;;4988307;28;20198;-76
2021/09/19 11:18:26;;;;;;;2.97;2.20;;;;;;;;;;4980969;28;20206;-77
2021/09/19 11:21:37;;;;;;;2.27;2.07;;;;;;;;;;4984357;28;20221;-75
2021/09/19 11:24:41;;;;;;;2.60;2.10;;;;;;;;;;4983849;28;20194;-76
2021/09/19 11:27:48;;;;;;;2.47;2.07;;;;;;;;;;4996965;28;20190;-75
2021/09/19 11:30:57;;;;;;;5.57;1.90;;;;;;;;;;4996861;28;20226;-76
2021/09/19 11:34:10;;;;;;;2.13;1.87;;;;;;;;;;4996719;28;20186;-75
2021/09/19 11:37:14;;;;;;;3.30;2.20;;;;;;;;;;4980428;28;20187;-76
2021/09/19 11:40:23;;;;;;;2.03;1.83;;;;;;;;;;4976693;28;20539;-75
2021/09/19 11:43:28;;;;;;;2.50;1.93;;;;;;;;;;4982137;28;20199;-76
2021/09/19 11:46:34;;;;;;;3.27;2.03;;;;;;;;;;4977575;28;20206;-76
2021/09/19 11:49:42;;;;;;;2.30;1.90;;;;;;;;;;4965918;28;20179;-76
2021/09/19 11:52:51;;;;;;;2.00;1.90;;;;;;;;;;4966429;28;20519;-76
2021/09/19 11:55:55;;;;;;;2.20;2.00;;;;;;;;;;4983794;28;20185;-76
2021/09/19 11:58:59;;;;;;;1.67;1.57;;;;;;;;;;4984556;28;20554;-76
2021/09/19 12:02:04;;;;;;;1.57;1.47;;;;;;;;;;4983599;28;20226;-77
2021/09/19 12:05:08;;;;;;;3.27;1.90;;;;;;;;;;4982660;28;20186;-76
2021/09/19 12:08:12;;;;;;;4.80;1.80;;;;;;;;;;5031077;22;21919;-76
2021/09/19 12:11:16;;;;;;;8.00;1.53;;;;;;;;;;5111788;27;20224;-77
2021/09/19 12:14:23;;;;;;;1.70;1.60;;;;;;;;;;5124391;27;20183;-76
2021/09/19 12:17:29;;;;;;;1.80;1.70;;;;;;;;;;5124611;27;20178;-76
2021/09/19 12:20:33;;;;;;;1.70;1.53;;;;;;;;;;5112507;27;20174;-76
2021/09/19 12:23:53;;;;;;;5.20;1.50;;;;;;;;;;5112780;27;20178;-76
2021/09/19 12:27:17;;;;;;;2.90;1.40;;;;;;;;;;5136419;27;20181;-76
2021/09/19 12:30:21;;;;;;;4.83;1.93;;;;;;;;;;5136690;27;20178;-76
2021/09/19 12:33:25;;;;;;;1.63;1.53;;;;;;;;;;5136633;27;20170;-76
2021/09/19 12:36:29;;;;;;;3.20;1.70;;;;;;;;;;5112243;27;20212;-76
2021/09/19 12:39:33;;;;;;;2.27;1.77;;;;;;;;;;5136288;27;20205;-76
2021/09/19 12:42:38;;;;;;;5.57;2.70;;;;;;;;;;5123978;27;20213;-76
2021/09/19 12:46:10;;;;;;;2.13;1.63;;;;;;;;;;5124044;27;20175;-76
2021/09/19 12:49:23;;;;;;;2.37;1.80;;;;;;;;;;5136904;27;20186;-76
2021/09/19 12:52:31;;;;;;;2.63;1.50;;;;;;;;;;5123529;27;20686;-75
2021/09/19 12:55:41;;;;;;;3.10;1.50;;;;;;;;;;5123715;27;20534;-76
2021/09/19 12:58:45;;;;;;;2.00;1.80;;;;;;;;;;5136272;27;20207;-76
2021/09/19 13:01:50;;;;;;;5.33;1.93;;;;;;;;;;5135933;27;20219;-75
2021/09/19 13:04:54;;;;;;;5.53;2.10;;;;;;;;;;5099954;27;20198;-76
2021/09/19 13:07:58;;;;;;;2.90;1.90;;;;;;;;;;5111638;27;20530;-76
2021/09/19 13:11:02;;;;;;;14.67;1.90;;;;;;;;;;5135949;27;20214;-76
2021/09/19 13:14:06;;;;;;;3.37;1.70;;;;;;;;;;5136111;27;20497;-76
2021/09/19 13:17:10;;;;;;;18.43;2.77;;;;;;;;;;5111663;27;20525;-76
2021/09/19 13:20:15;;;;;;;6.87;1.90;;;;;;;;;;5135455;27;20213;-76
2021/09/19 13:23:19;;;;;;;2.60;1.80;;;;;;;;;;5136164;27;20178;-76
2021/09/19 13:26:23;;;;;;;1.90;1.80;;;;;;;;;;5135543;27;20182;-75
2021/09/19 13:29:27;;;;;;;4.50;2.47;;;;;;;;;;5123161;27;20181;-76
2021/09/19 13:32:31;;;;;;;3.20;1.53;;;;;;;;;;5110998;27;20213;-76
2021/09/19 13:35:36;;;;;;;2.40;2.20;;;;;;;;;;5122730;27;20177;-76
2021/09/19 13:38:41;;;;;;;2.27;2.07;;;;;;;;;;5099215;27;20201;-76
2021/09/19 13:41:45;;;;;;;2.20;1.90;;;;;;;;;;5135263;27;20217;-76
2021/09/19 13:44:49;;;;;;;2.47;2.13;;;;;;;;;;5135440;27;20169;-76
2021/09/19 13:47:54;;;;;;;3.60;2.00;;;;;;;;;;5111048;27;20182;-76
2021/09/19 13:50:58;;;;;;;2.77;2.03;;;;;;;;;;5135099;27;20204;-76
2021/09/19 13:54:05;;;;;;;3.20;2.10;;;;;;;;;;5111196;27;20181;-75
2021/09/19 13:57:11;;;;;;;2.27;1.90;;;;;;;;;;5110773;27;20632;-75
2021/09/19 14:00:15;;;;;;;10.07;2.20;;;;;;;;;;5122334;27;20205;-76
2021/09/19 14:03:19;;;;;;;3.03;2.03;;;;;;;;;;5122251;27;20173;-76
2021/09/19 14:06:23;;;;;;;22.30;2.97;;;;;;;;;;5122547;27;20177;-76
2021/09/19 14:09:27;;;;;;;4.73;2.03;;;;;;;;;;5122172;27;20193;-76
2021/09/19 14:12:31;;;;;;;2.17;1.77;;;;;;;;;;5134670;27;20687;-75
2021/09/19 14:15:36;;;;;;;3.97;1.80;;;;;;;;;;5122130;27;20178;-76
2021/09/19 14:18:40;;;;;;;2.67;1.90;;;;;;;;;;5134838;27;20180;-76
2021/09/19 14:21:44;;;;;;;2.20;2.00;;;;;;;;;;5134701;27;20221;-76
2021/09/19 14:24:49;;;;;;;1.93;1.80;;;;;;;;;;5122233;27;20177;-76
2021/09/19 14:27:54;;;;;;;2.80;1.80;;;;;;;;;;5122482;27;20177;-75
2021/09/19 14:30:58;;;;;;;2.37;1.97;;;;;;;;;;5134699;27;20206;-76
2021/09/19 14:34:02;;;;;;;8.93;2.20;;;;;;;;;;5110562;27;20173;-75
2021/09/19 14:37:08;;;;;;;2.97;1.80;;;;;;;;;;5134689;27;20521;-76
2021/09/19 14:40:13;;;;;;;2.47;1.70;;;;;;;;;;5121672;28;20544;-75
2021/09/19 14:43:17;;;;;;;3.33;1.63;;;;;;;;;;5122034;28;20178;-76
2021/09/19 14:46:22;;;;;;;2.47;1.67;;;;;;;;;;5134647;28;20178;-76
2021/09/19 14:49:26;;;;;;;4.57;2.13;;;;;;;;;;5121934;27;20181;-76
2021/09/19 14:52:30;;;;;;;3.87;2.10;;;;;;;;;;5138501;27;20690;-77
2021/09/19 14:55:35;;;;;;;2.30;2.10;;;;;;;;;;5138739;27;20655;-76
2021/09/19 14:58:39;;;;;;;2.30;2.10;;;;;;;;;;5114682;27;20627;-75
2021/09/19 15:01:43;;;;;;;17.40;2.50;;;;;;;;;;5114357;27;20208;-76
2021/09/19 15:04:47;;;;;;;3.60;2.27;;;;;;;;;;5125805;27;20181;-76
2021/09/19 15:07:52;;;;;;;3.17;2.00;;;;;;;;;;5138624;27;20200;-76
2021/09/19 15:10:56;;;;;;;72.40;5.20;;;;;;;;;;5137849;27;20209;-76
2021/09/19 15:14:00;;;;;;;2.73;1.97;;;;;;;;;;5125882;27;20655;-76
2021/09/19 15:17:05;;;;;;;3.50;2.10;;;;;;;;;;5137162;27;20655;-76
2021/09/19 15:20:12;;;;;;;3.43;1.90;;;;;;;;;;5124858;27;20214;-76
2021/09/19 15:23:15;;;;;;;7.63;3.30;;;;;;;;;;5138327;27;20516;-76
2021/09/19 15:26:19;;;;;;;2.57;2.20;;;;;;;;;;5124318;27;20189;-76
2021/09/19 15:29:25;;;;;;;3.33;2.50;;;;;;;;;;5138226;27;20512;-76
2021/09/19 15:32:29;;;;;;;3.70;2.30;;;;;;;;;;5092755;28;20214;-77
2021/09/19 15:35:33;;;;;;;2.50;2.30;;;;;;;;;;5119880;27;20185;-75
2021/09/19 15:38:38;;;;;;;3.00;2.40;;;;;;;;;;5124364;27;20193;-76
2021/09/19 15:41:42;;;;;;;3.53;2.73;;;;;;;;;;5134408;27;20213;-77
2021/09/19 15:44:46;;;;;;;3.97;2.07;;;;;;;;;;5116546;27;20533;-77
2021/09/19 15:47:55;;;;;;;2.40;2.20;;;;;;;;;;5119255;27;20190;-78
2021/09/19 15:51:00;;;;;;;6.30;2.40;;;;;;;;;;5098670;27;20218;-77
2021/09/19 15:54:04;;;;;;;2.97;2.13;;;;;;;;;;5118204;27;20190;-78
2021/09/19 15:57:08;;;;;;;2.57;2.33;;;;;;;;;;5094931;28;20170;-78
2021/09/19 16:00:13;;;;;;;3.77;2.50;;;;;;;;;;5111347;27;20209;-78
2021/09/19 16:03:18;;;;;;;3.60;2.03;;;;;;;;;;5115189;27;20177;-80
2021/09/19 16:06:23;;;;;;;3.43;2.07;;;;;;;;;;5116273;27;20182;-78
2021/09/19 16:09:28;;;;;;;2.10;1.90;;;;;;;;;;5107068;28;20202;-77
2021/09/19 16:12:33;;;;;;;3.23;2.20;;;;;;;;;;5123476;27;20221;-77
2021/09/19 16:15:37;;;;;;;8.93;3.27;;;;;;;;;;5101295;27;20902;-78
2021/09/19 16:18:41;;;;;;;5.30;2.10;;;;;;;;;;5119314;27;20647;-76
2021/09/19 16:21:45;;;;;;;2.47;2.10;;;;;;;;;;5110714;27;20213;-76
2021/09/19 16:24:49;;;;;;;3.50;2.30;;;;;;;;;;5121568;27;20533;-77
2021/09/19 16:27:57;;;;;;;2.87;2.17;;;;;;;;;;5134450;27;20177;-77
2021/09/19 16:31:04;;;;;;;4.30;2.00;;;;;;;;;;5121889;27;20217;-77
2021/09/19 16:34:08;;;;;;;16.57;3.23;;;;;;;;;;5124339;27;20525;-78
2021/09/19 16:37:13;;;;;;;32.53;3.00;;;;;;;;;;5114862;27;20190;-77
2021/09/19 16:40:17;;;;;;;27.13;2.93;;;;;;;;;;5102459;28;20236;-77
2021/09/19 16:43:22;;;;;;;7.00;2.57;;;;;;;;;;5114574;28;20186;-77
2021/09/19 16:46:26;;;;;;;17.23;3.73;;;;;;;;;;5118468;27;20616;-77
2021/09/19 16:49:30;;;;;;;31.00;4.47;;;;;;;;;;5136880;27;20174;-77
2021/09/19 16:52:34;;;;;;;8.63;4.03;;;;;;;;;;5122994;27;20209;-78
2021/09/19 16:55:38;;;;;;;10.63;3.23;;;;;;;;;;5135068;27;20545;-78
2021/09/19 16:58:42;;;;;;;6.93;3.53;;;;;;;;;;5122665;27;20520;-77
2021/09/19 17:01:47;;;;;;;2.97;2.63;;;;;;;;;;5135465;27;20265;-78
2021/09/19 17:04:51;;;;;;;8.03;2.83;;;;;;;;;;5122315;27;20197;-77
2021/09/19 17:07:55;;;;;;;14.73;2.90;;;;;;;;;;5105515;28;20193;-79
2021/09/19 17:11:00;;;;;;;4.03;2.50;;;;;;;;;;5106024;28;20213;-79
2021/09/19 17:14:04;;;;;;;3.47;2.70;;;;;;;;;;5101026;28;20178;-78
2021/09/19 17:17:08;;;;;;;4.53;2.57;;;;;;;;;;5082844;27;20648;-78
2021/09/19 17:20:15;;;;;;;5.93;2.40;;;;;;;;;;5119836;27;20220;-77
2021/09/19 17:23:19;;;;;;;3.03;2.37;;;;;;;;;;5102447;28;20178;-78
2021/09/19 17:26:23;;;;;;;3.63;2.50;;;;;;;;;;5102047;28;20194;-78
2021/09/19 17:29:27;;;;;;;2.93;2.70;;;;;;;;;;5113524;28;20173;-78
2021/09/19 17:32:31;;;;;;;2.43;2.23;;;;;;;;;;5113707;28;20218;-78
2021/09/19 17:35:35;;;;;;;4.03;2.90;;;;;;;;;;5095852;27;20617;-78
2021/09/19 17:38:39;;;;;;;3.60;2.70;;;;;;;;;;5121865;27;20197;-77
2021/09/19 17:41:44;;;;;;;4.73;2.87;;;;;;;;;;5097086;27;20213;-78
2021/09/19 17:44:48;;;;;;;3.40;3.10;;;;;;;;;;5121295;27;20197;-78
2021/09/19 17:47:52;;;;;;;3.90;3.00;;;;;;;;;;5132652;27;20623;-78
2021/09/19 17:50:57;;;;;;;15.33;3.60;;;;;;;;;;5109075;27;20683;-78
2021/09/19 17:54:02;;;;;;;6.57;3.47;;;;;;;;;;5106084;27;20190;-77
2021/09/19 17:57:07;;;;;;;4.43;3.10;;;;;;;;;;5120240;27;20181;-78
2021/09/19 18:00:11;;;;;;;2.70;2.50;;;;;;;;;;5121253;27;20995;-77
2021/09/19 18:03:15;;;;;;;3.00;2.70;;;;;;;;;;5100464;28;20198;-78
2021/09/19 18:06:20;;;;;;;4.30;3.03;;;;;;;;;;5113184;28;20521;-77
2021/09/19 18:09:24;;;;;;;3.67;3.20;;;;;;;;;;5088225;28;20205;-77
2021/09/19 18:12:28;;;;;;;3.50;2.97;;;;;;;;;;5100308;28;20218;-78
2021/09/19 18:15:32;;;;;;;3.97;3.10;;;;;;;;;;5112834;28;20198;-77
2021/09/19 18:18:36;;;;;;;4.47;3.63;;;;;;;;;;5112277;28;20197;-77
2021/09/19 18:21:41;;;;;;;4.00;3.60;;;;;;;;;;5116930;27;20217;-78
2021/09/19 18:24:45;;;;;;;4.77;4.00;;;;;;;;;;5118945;27;20193;-77